createdAt,value
2023-04-15T00:01:28.455Z,2.80
2023-04-15T00:03:56.665Z,2.90
2023-04-15T00:06:24.718Z,2.83
2023-04-15T00:08:52.123Z,2.97
2023-04-15T00:11:19.892Z,2.80
2023-04-15T00:13:46.935Z,2.83
2023-04-15T00:16:14.513Z,2.83
2023-04-15T00:18:42.106Z,3.00
2023-04-15T00:21:09.530Z,2.80
2023-04-15T00:23:36.948Z,2.80
2023-04-15T00:26:04.497Z,2.80
2023-04-15T00:28:32.082Z,2.80
2023-04-15T00:30:59.288Z,2.83
2023-04-15T00:33:26.850Z,2.80
2023-04-15T00:35:53.917Z,2.80
2023-04-15T00:38:21.460Z,2.87
2023-04-15T00:40:48.742Z,2.80
2023-04-15T00:43:18.483Z,2.77
2023-04-15T00:45:47.024Z,2.80
2023-04-15T00:48:14.433Z,2.80
2023-04-15T00:50:41.549Z,2.80
2023-04-15T00:53:08.601Z,2.83
2023-04-15T00:55:36.170Z,2.83
2023-04-15T00:58:03.612Z,2.80
2023-04-15T01:00:31.094Z,2.80
2023-04-15T01:02:59.670Z,2.80
2023-04-15T01:05:28.161Z,2.80
2023-04-15T01:07:57.901Z,2.80
2023-04-15T01:10:25.464Z,2.80
2023-04-15T01:12:52.690Z,2.87
2023-04-15T01:15:21.242Z,2.83
2023-04-15T01:17:49.004Z,2.80
2023-04-15T01:20:17.101Z,2.80
2023-04-15T01:22:45.231Z,2.80
2023-04-15T01:25:19.663Z,2.90
2023-04-15T01:27:47.530Z,2.80
2023-04-15T01:30:15.474Z,2.77
2023-04-15T01:32:42.864Z,2.80
2023-04-15T01:35:10.494Z,2.80
2023-04-15T01:37:38.128Z,2.90
2023-04-15T01:40:06.534Z,2.80
2023-04-15T01:42:36.513Z,2.77
2023-04-15T01:45:04.553Z,2.80
2023-04-15T01:47:32.093Z,2.80
2023-04-15T01:49:59.717Z,2.80
2023-04-15T01:52:27.154Z,2.80
2023-04-15T01:54:54.588Z,2.80
2023-04-15T01:57:21.860Z,2.77
2023-04-15T01:59:49.453Z,2.80
2023-04-15T02:02:17.413Z,2.80
2023-04-15T02:04:45.217Z,2.80
2023-04-15T02:07:12.988Z,2.80
2023-04-15T02:09:40.082Z,2.80
2023-04-15T02:12:08.620Z,2.87
2023-04-15T02:14:36.276Z,2.90
2023-04-15T02:17:07.265Z,2.77
2023-04-15T02:19:35.560Z,2.87
2023-04-15T02:22:04.139Z,2.90
2023-04-15T02:24:31.513Z,2.80
2023-04-15T02:26:58.992Z,2.83
2023-04-15T02:29:26.562Z,2.90
2023-04-15T02:31:53.846Z,2.87
2023-04-15T02:34:20.945Z,2.90
2023-04-15T02:36:49.599Z,2.80
2023-04-15T02:39:18.496Z,2.80
2023-04-15T02:41:47.668Z,2.87
2023-04-15T02:44:15.492Z,2.80
2023-04-15T02:46:44.611Z,2.80
2023-04-15T02:49:12.101Z,2.80
2023-04-15T02:51:39.338Z,2.87
2023-04-15T02:54:06.940Z,2.80
2023-04-15T02:56:34.465Z,2.80
2023-04-15T02:59:01.932Z,2.80
2023-04-15T03:01:29.582Z,2.80
2023-04-15T03:03:57.124Z,2.80
2023-04-15T03:06:24.645Z,2.83
2023-04-15T03:08:51.982Z,2.80
2023-04-15T03:11:20.232Z,2.80
2023-04-15T03:13:47.697Z,2.80
2023-04-15T03:16:26.303Z,2.80
2023-04-15T03:18:53.448Z,2.80
2023-04-15T03:21:22.138Z,2.80
2023-04-15T03:23:49.902Z,2.80
2023-04-15T03:26:29.491Z,2.83
2023-04-15T03:29:00.739Z,2.80
2023-04-15T03:31:29.082Z,2.80
2023-04-15T03:33:56.309Z,2.80
2023-04-15T03:36:24.054Z,2.80
2023-04-15T03:38:51.156Z,2.90
2023-04-15T03:41:18.255Z,2.80
2023-04-15T03:43:45.312Z,2.77
2023-04-15T03:46:12.407Z,2.83
2023-04-15T03:48:39.842Z,2.80
2023-04-15T03:51:07.308Z,2.80
2023-04-15T03:53:34.731Z,2.90
2023-04-15T03:56:02.255Z,2.90
2023-04-15T03:58:29.656Z,2.80
2023-04-15T04:00:57.010Z,2.90
2023-04-15T04:03:24.204Z,2.83
2023-04-15T04:05:52.705Z,2.83
2023-04-15T04:08:21.540Z,2.83
2023-04-15T04:10:49.009Z,2.83
2023-04-15T04:13:16.467Z,2.80
2023-04-15T04:15:43.962Z,2.80
2023-04-15T04:18:11.510Z,2.80
2023-04-15T04:20:39.000Z,2.90
2023-04-15T04:23:06.470Z,2.80
2023-04-15T04:25:33.853Z,2.80
2023-04-15T04:28:01.291Z,2.83
2023-04-15T04:30:28.324Z,2.90
2023-04-15T04:32:56.014Z,2.90
2023-04-15T04:35:23.480Z,2.83
2023-04-15T04:37:52.253Z,2.80
2023-04-15T04:40:19.535Z,2.90
2023-04-15T04:42:46.677Z,2.77
2023-04-15T04:45:14.142Z,2.80
2023-04-15T04:47:41.166Z,2.87
2023-04-15T04:50:09.051Z,2.80
2023-04-15T04:52:36.352Z,2.80
2023-04-15T04:55:03.573Z,2.80
2023-04-15T04:57:30.810Z,2.80
2023-04-15T04:59:58.253Z,2.80
2023-04-15T05:02:27.031Z,2.80
2023-04-15T05:04:54.738Z,2.80
2023-04-15T05:07:22.210Z,2.80
2023-04-15T05:09:49.650Z,2.80
2023-04-15T05:12:18.093Z,2.73
2023-04-15T05:14:46.605Z,2.80
2023-04-15T05:17:14.036Z,2.80
2023-04-15T05:19:41.063Z,2.70
2023-04-15T05:22:08.814Z,2.80
2023-04-15T05:24:36.309Z,2.87
2023-04-15T05:27:03.806Z,2.80
2023-04-15T05:29:31.253Z,2.90
2023-04-15T05:31:58.518Z,2.80
2023-04-15T05:34:26.003Z,2.80
2023-04-15T05:36:53.530Z,2.73
2023-04-15T05:39:21.303Z,2.70
2023-04-15T05:41:48.778Z,2.80
2023-04-15T05:44:16.027Z,2.80
2023-04-15T05:46:43.640Z,2.80
2023-04-15T05:49:11.103Z,2.80
2023-04-15T05:51:38.559Z,2.77
2023-04-15T05:54:06.736Z,2.87
2023-04-15T05:56:34.266Z,2.80
2023-04-15T05:59:01.735Z,2.77
2023-04-15T06:01:28.834Z,2.80
2023-04-15T06:03:56.753Z,2.80
2023-04-15T06:06:24.440Z,2.77
2023-04-15T06:08:52.108Z,2.83
2023-04-15T06:11:21.306Z,2.77
2023-04-15T06:13:48.751Z,2.80
2023-04-15T06:16:16.567Z,2.70
2023-04-15T06:18:44.058Z,2.70
2023-04-15T06:21:11.472Z,2.80
2023-04-15T06:23:41.060Z,2.73
2023-04-15T06:26:08.699Z,2.80
2023-04-15T06:28:36.047Z,2.77
2023-04-15T06:31:03.518Z,2.77
2023-04-15T06:33:31.720Z,2.67
2023-04-15T06:35:59.139Z,2.77
2023-04-15T06:38:26.595Z,2.80
2023-04-15T06:40:53.691Z,2.70
2023-04-15T06:43:20.827Z,2.60
2023-04-15T06:45:48.389Z,2.70
2023-04-15T06:48:15.672Z,2.60
2023-04-15T06:50:43.436Z,2.60
2023-04-15T06:53:11.298Z,2.60
2023-04-15T06:55:38.929Z,2.80
2023-04-15T06:58:06.327Z,2.60
2023-04-15T07:00:34.214Z,2.80
2023-04-15T07:03:03.634Z,2.63
2023-04-15T07:05:32.348Z,2.63
2023-04-15T07:07:59.994Z,2.60
2023-04-15T07:10:27.434Z,2.70
2023-04-15T07:12:55.089Z,2.63
2023-04-15T07:15:23.457Z,2.60
2023-04-15T07:17:51.297Z,2.70
2023-04-15T07:20:18.487Z,2.70
2023-04-15T07:22:46.038Z,2.70
2023-04-15T07:25:13.601Z,2.60
2023-04-15T07:27:41.564Z,2.60
2023-04-15T07:30:09.715Z,2.60
2023-04-15T07:32:36.991Z,2.63
2023-04-15T07:35:04.878Z,2.70
2023-04-15T07:37:32.371Z,2.77
2023-04-15T07:39:59.810Z,2.60
2023-04-15T07:42:27.531Z,2.70
2023-04-15T07:44:54.701Z,2.67
2023-04-15T07:47:22.018Z,2.60
2023-04-15T07:49:51.340Z,2.60
2023-04-15T07:52:19.171Z,2.70
2023-04-15T07:54:46.808Z,2.63
2023-04-15T07:57:14.278Z,2.63
2023-04-15T07:59:41.722Z,2.63
2023-04-15T08:03:36.319Z,2.77
2023-04-15T08:06:04.355Z,2.70
2023-04-15T08:08:31.955Z,2.63
2023-04-15T08:10:59.616Z,2.70
2023-04-15T08:13:27.353Z,2.70
2023-04-15T08:16:21.554Z,2.73
2023-04-15T08:18:51.357Z,2.60
2023-04-15T08:21:19.980Z,2.70
2023-04-15T08:23:51.157Z,2.70
2023-04-15T08:26:20.852Z,2.60
2023-04-15T08:28:49.053Z,2.60
2023-04-15T08:31:18.487Z,2.67
2023-04-15T08:33:46.673Z,2.67
2023-04-15T08:36:14.731Z,2.60
2023-04-15T08:38:42.171Z,2.67
2023-04-15T08:41:40.053Z,2.60
2023-04-15T08:44:07.370Z,2.70
2023-04-15T08:46:35.055Z,2.70
2023-04-15T08:49:05.676Z,2.73
2023-04-15T08:51:33.890Z,2.67
2023-04-15T08:54:02.503Z,2.70
2023-04-15T08:56:33.125Z,2.70
2023-04-15T08:59:01.319Z,2.70
2023-04-15T09:01:29.735Z,2.70
2023-04-15T09:03:57.668Z,2.60
2023-04-15T09:06:26.057Z,2.70
2023-04-15T09:08:53.565Z,2.70
2023-04-15T09:11:22.409Z,2.70
2023-04-15T09:13:49.922Z,2.70
2023-04-15T09:16:17.512Z,2.60
2023-04-15T09:18:44.747Z,2.80
2023-04-15T09:21:16.295Z,2.60
2023-04-15T09:24:02.305Z,2.70
2023-04-15T09:26:40.033Z,2.60
2023-04-15T09:29:10.366Z,2.63
2023-04-15T09:31:38.340Z,2.60
2023-04-15T09:34:06.916Z,2.70
2023-04-15T09:36:56.970Z,2.60
2023-04-15T09:39:24.487Z,2.70
2023-04-15T09:42:08.348Z,2.70
2023-04-15T09:44:36.352Z,2.60
2023-04-15T09:47:03.500Z,2.70
2023-04-15T09:49:31.090Z,2.67
2023-04-15T09:52:06.190Z,2.60
2023-04-15T09:54:38.859Z,2.60
2023-04-15T09:57:10.618Z,2.60
2023-04-15T09:59:38.076Z,2.60
2023-04-15T10:02:08.732Z,2.70
2023-04-15T10:04:41.430Z,2.70
2023-04-15T10:07:13.307Z,2.60
2023-04-15T10:09:41.254Z,2.60
2023-04-15T10:12:09.745Z,2.60
2023-04-15T10:14:40.660Z,2.70
2023-04-15T10:17:12.591Z,2.70
2023-04-15T10:19:40.478Z,2.70
2023-04-15T10:22:08.578Z,2.60
2023-04-15T10:24:37.194Z,2.60
2023-04-15T10:27:06.326Z,2.57
2023-04-15T10:29:34.306Z,2.60
2023-04-15T10:32:03.085Z,2.60
2023-04-15T10:34:31.760Z,2.60
2023-04-15T10:37:03.626Z,2.63
2023-04-15T10:39:37.279Z,2.60
2023-04-15T10:42:15.205Z,2.70
2023-04-15T10:44:54.512Z,2.60
2023-04-15T10:47:22.485Z,2.60
2023-04-15T10:49:57.057Z,2.60
2023-04-15T10:52:28.096Z,2.70
2023-04-15T10:55:27.415Z,2.70
2023-04-15T10:58:00.717Z,2.70
2023-04-15T11:00:33.034Z,2.70
2023-04-15T11:03:10.173Z,2.67
2023-04-15T11:05:50.276Z,2.80
2023-04-15T11:08:18.068Z,2.70
2023-04-15T11:10:46.211Z,2.70
2023-04-15T11:13:22.575Z,2.70
2023-04-15T11:15:51.986Z,2.70
2023-04-15T11:18:25.581Z,2.60
2023-04-15T11:21:01.108Z,2.70
2023-04-15T11:23:35.642Z,2.70
2023-04-15T11:26:09.408Z,2.60
2023-04-15T11:28:39.229Z,2.60
2023-04-15T11:31:11.314Z,2.63
2023-04-15T11:33:56.327Z,2.70
2023-04-15T11:36:31.693Z,2.77
2023-04-15T11:39:00.441Z,2.60
2023-04-15T11:41:28.023Z,2.63
2023-04-15T11:43:55.467Z,2.60
2023-04-15T11:46:32.017Z,2.60
2023-04-15T11:49:00.112Z,2.60
2023-04-15T11:51:33.013Z,2.70
2023-04-15T11:54:00.873Z,2.67
2023-04-15T11:56:28.310Z,2.63
2023-04-15T11:58:59.437Z,2.57
2023-04-15T12:01:46.632Z,2.63
2023-04-15T12:04:20.115Z,2.60
2023-04-15T12:06:49.902Z,2.60
2023-04-15T12:09:17.703Z,2.57
2023-04-15T12:11:49.844Z,2.53
2023-04-15T12:14:46.352Z,2.50
2023-04-15T12:17:13.915Z,2.60
2023-04-15T12:19:43.086Z,2.57
2023-04-15T12:22:16.760Z,2.60
2023-04-15T12:24:48.176Z,2.60
2023-04-15T12:27:17.565Z,2.60
2023-04-15T12:29:45.173Z,2.60
2023-04-15T12:32:16.115Z,2.60
2023-04-15T12:34:50.868Z,2.50
2023-04-15T12:37:19.463Z,2.50
2023-04-15T12:39:49.942Z,2.60
2023-04-15T12:42:18.338Z,2.70
2023-04-15T12:44:46.819Z,2.60
2023-04-15T12:47:14.491Z,2.70
2023-04-15T12:49:42.121Z,2.60
2023-04-15T12:52:09.645Z,2.50
2023-04-15T12:54:37.452Z,2.60
2023-04-15T12:57:07.141Z,2.50
2023-04-15T12:59:36.065Z,2.63
2023-04-15T13:02:03.992Z,2.60
2023-04-15T13:04:31.813Z,2.57
2023-04-15T13:06:59.402Z,2.60
2023-04-15T13:09:26.981Z,2.60
2023-04-15T13:11:54.607Z,2.70
2023-04-15T13:14:22.680Z,2.60
2023-04-15T13:16:50.097Z,2.53
2023-04-15T13:19:17.673Z,2.60
2023-04-15T13:21:45.556Z,2.67
2023-04-15T13:24:13.210Z,2.60
2023-04-15T13:26:40.317Z,2.57
2023-04-15T13:29:07.874Z,2.53
2023-04-15T13:31:35.402Z,2.60
2023-04-15T13:34:03.250Z,2.67
2023-04-15T13:36:30.683Z,2.60
2023-04-15T13:38:58.309Z,2.53
2023-04-15T13:41:25.497Z,2.70
2023-04-15T13:43:52.984Z,2.60
2023-04-15T13:46:20.123Z,2.67
2023-04-15T13:48:48.325Z,2.60
2023-04-15T13:51:16.098Z,2.60
2023-04-15T13:53:43.679Z,2.60
2023-04-15T13:56:11.136Z,2.60
2023-04-15T13:58:41.213Z,2.60
2023-04-15T14:01:08.682Z,2.43
2023-04-15T14:03:37.001Z,2.50
2023-04-15T14:06:06.022Z,2.60
2023-04-15T14:08:33.704Z,2.50
2023-04-15T14:11:01.331Z,2.60
2023-04-15T14:13:29.291Z,2.57
2023-04-15T14:15:57.442Z,2.50
2023-04-15T14:18:24.632Z,2.50
2023-04-15T14:20:51.835Z,2.50
2023-04-15T14:23:19.400Z,2.50
2023-04-15T14:25:48.335Z,2.47
2023-04-15T14:28:16.160Z,2.50
2023-04-15T14:30:43.615Z,2.50
2023-04-15T14:33:10.839Z,2.40
2023-04-15T14:35:38.574Z,2.53
2023-04-15T14:38:11.169Z,2.50
2023-04-15T14:40:39.202Z,2.47
2023-04-15T14:43:06.312Z,2.43
2023-04-15T14:45:33.872Z,2.60
2023-04-15T14:48:01.582Z,2.60
2023-04-15T14:50:28.741Z,2.60
2023-04-15T14:52:55.766Z,2.50
2023-04-15T14:55:22.883Z,2.60
2023-04-15T14:57:49.985Z,2.60
2023-04-15T15:00:20.655Z,2.50
2023-04-15T15:02:48.438Z,2.57
2023-04-15T15:05:16.722Z,2.57
2023-04-15T15:07:44.258Z,2.50
2023-04-15T15:10:11.411Z,2.60
2023-04-15T15:12:38.442Z,2.60
2023-04-15T15:15:15.774Z,2.60
2023-04-15T15:17:47.565Z,2.60
2023-04-15T15:20:16.448Z,2.60
2023-04-15T15:22:43.651Z,2.70
2023-04-15T15:25:10.843Z,2.67
2023-04-15T15:27:38.543Z,2.60
2023-04-15T15:30:06.836Z,2.50
2023-04-15T15:32:34.740Z,2.60
2023-04-15T15:35:02.108Z,2.50
2023-04-15T15:37:31.374Z,2.67
2023-04-15T15:39:59.006Z,2.60
2023-04-15T15:42:26.821Z,2.60
2023-04-15T15:44:53.920Z,2.60
2023-04-15T15:47:22.524Z,2.63
2023-04-15T15:49:49.797Z,2.70
2023-04-15T15:52:17.272Z,2.70
2023-04-15T15:54:44.736Z,2.60
2023-04-15T15:57:12.279Z,2.60
2023-04-15T15:59:41.171Z,2.70
2023-04-15T16:02:17.015Z,2.60
2023-04-15T16:04:44.361Z,2.50
2023-04-15T16:07:12.015Z,2.70
2023-04-15T16:09:40.955Z,2.60
2023-04-15T16:12:08.383Z,2.60
2023-04-15T16:14:36.354Z,2.70
2023-04-15T16:17:03.803Z,2.60
2023-04-15T16:19:31.171Z,2.60
2023-04-15T16:22:00.921Z,2.63
2023-04-15T16:24:29.688Z,2.60
2023-04-15T16:26:59.172Z,2.70
2023-04-15T16:29:26.402Z,2.70
2023-04-15T16:31:55.899Z,2.60
2023-04-15T16:34:23.634Z,2.70
2023-04-15T16:36:50.986Z,2.60
2023-04-15T16:39:19.520Z,2.60
2023-04-15T16:41:46.581Z,2.63
2023-04-15T16:44:14.225Z,2.57
2023-04-15T16:46:41.413Z,2.60
2023-04-15T16:49:08.942Z,2.67
2023-04-15T16:51:36.007Z,2.63
2023-04-15T16:54:03.074Z,2.60
2023-04-15T16:56:31.470Z,2.60
2023-04-15T16:58:58.577Z,2.63
2023-04-15T17:01:25.896Z,2.50
2023-04-15T17:03:55.889Z,2.70
2023-04-15T17:06:23.525Z,2.67
2023-04-15T17:08:51.657Z,2.60
2023-04-15T17:11:19.344Z,2.70
2023-04-15T17:13:47.185Z,2.70
2023-04-15T17:16:14.327Z,2.67
2023-04-15T17:18:41.485Z,2.77
2023-04-15T17:21:08.610Z,2.60
2023-04-15T17:23:36.118Z,2.70
2023-04-15T17:26:03.572Z,2.80
2023-04-15T17:28:31.013Z,2.70
2023-04-15T17:30:58.240Z,2.60
2023-04-15T17:34:02.186Z,2.67
2023-04-15T17:36:14.510Z,2.80
2023-04-15T17:38:42.043Z,2.57
2023-04-15T17:41:09.132Z,2.70
2023-04-15T17:43:36.270Z,2.60
2023-04-15T17:46:03.381Z,2.60
2023-04-15T17:48:30.485Z,2.70
2023-04-15T17:50:57.661Z,2.70
2023-04-15T17:53:24.664Z,2.60
2023-04-15T17:55:53.099Z,2.60
2023-04-15T17:58:20.626Z,2.70
2023-04-15T18:00:48.355Z,2.60
2023-04-15T18:03:16.026Z,2.63
2023-04-15T18:05:43.621Z,2.60
2023-04-15T18:08:11.031Z,2.60
2023-04-15T18:10:39.209Z,2.60
2023-04-15T18:13:06.579Z,2.60
2023-04-15T18:15:34.710Z,2.60
2023-04-15T18:18:02.777Z,2.63
2023-04-15T18:20:30.070Z,2.60
2023-04-15T18:22:57.583Z,2.73
2023-04-15T18:25:26.172Z,2.70
2023-04-15T18:27:56.044Z,2.57
2023-04-15T18:30:23.753Z,2.63
2023-04-15T18:32:51.315Z,2.70
2023-04-15T18:35:20.515Z,2.63
2023-04-15T18:37:47.690Z,2.67
2023-04-15T18:40:16.118Z,2.60
2023-04-15T18:42:43.547Z,2.67
2023-04-15T18:45:11.139Z,2.63
2023-04-15T18:47:38.591Z,2.60
2023-04-15T18:50:07.406Z,2.70
2023-04-15T18:52:34.788Z,2.70
2023-04-15T18:55:05.520Z,2.60
2023-04-15T18:57:35.126Z,2.60
2023-04-15T19:00:03.447Z,2.60
2023-04-15T19:02:31.036Z,2.60
2023-04-15T19:04:58.560Z,2.70
2023-04-15T19:07:26.476Z,2.60
2023-04-15T19:09:53.916Z,2.67
2023-04-15T19:12:21.078Z,2.60
2023-04-15T19:14:48.191Z,2.60
2023-04-15T19:17:16.181Z,2.60
2023-04-15T19:19:44.041Z,2.60
2023-04-15T19:22:11.525Z,2.67
2023-04-15T19:24:39.967Z,2.60
2023-04-15T19:27:07.423Z,2.57
2023-04-15T19:29:34.613Z,2.60
2023-04-15T19:32:02.168Z,2.70
2023-04-15T19:34:29.580Z,2.63
2023-04-15T19:36:57.324Z,2.60
2023-04-15T19:39:24.444Z,2.63
2023-04-15T19:41:55.104Z,2.70
2023-04-15T19:44:22.436Z,2.60
2023-04-15T19:46:51.345Z,2.60
2023-04-15T19:49:19.362Z,2.57
2023-04-15T19:51:50.248Z,2.70
2023-04-15T19:54:17.730Z,2.60
2023-04-15T19:56:45.322Z,2.67
2023-04-15T19:59:12.904Z,2.63
2023-04-15T20:01:40.475Z,2.60
2023-04-15T20:04:08.172Z,2.67
2023-04-15T20:06:35.681Z,2.57
2023-04-15T20:09:03.001Z,2.57
2023-04-15T20:12:05.159Z,2.67
2023-04-15T20:14:18.169Z,2.60
2023-04-15T20:16:45.913Z,2.60
2023-04-15T20:19:13.754Z,2.67
2023-04-15T20:21:41.200Z,2.60
2023-04-15T20:24:09.002Z,2.67
2023-04-15T20:26:36.363Z,2.63
2023-04-15T20:29:04.972Z,2.60
2023-04-15T20:31:33.838Z,2.70
2023-04-15T20:34:01.415Z,2.70
2023-04-15T20:36:29.467Z,2.60
2023-04-15T20:38:57.258Z,2.60
2023-04-15T20:41:24.273Z,2.60
2023-04-15T20:43:51.800Z,2.60
2023-04-15T20:46:21.364Z,2.60
2023-04-15T20:48:49.544Z,2.60
2023-04-15T20:51:17.066Z,2.60
2023-04-15T20:53:44.284Z,2.63
2023-04-15T20:56:11.766Z,2.60
2023-04-15T20:58:39.304Z,2.60
2023-04-15T21:01:06.493Z,2.60
2023-04-15T21:03:34.166Z,2.57
2023-04-15T21:06:01.352Z,2.60
2023-04-15T21:08:30.362Z,2.60
2023-04-15T21:10:58.341Z,2.60
2023-04-15T21:13:26.116Z,2.60
2023-04-15T21:15:54.356Z,2.70
2023-04-15T21:18:22.900Z,2.57
2023-04-15T21:21:01.094Z,2.60
2023-04-15T21:23:29.890Z,2.77
2023-04-15T21:25:58.742Z,2.60
2023-04-15T21:28:27.946Z,2.57
2023-04-15T21:30:59.107Z,2.60
2023-04-15T21:33:27.148Z,2.60
2023-04-15T21:35:54.801Z,2.60
2023-04-15T21:38:23.459Z,2.57
2023-04-15T21:40:51.342Z,2.60
2023-04-15T21:43:18.879Z,2.60
2023-04-15T21:45:51.348Z,2.70
2023-04-15T21:48:33.554Z,2.53
2023-04-15T21:51:01.778Z,2.60
2023-04-15T21:53:29.359Z,2.70
2023-04-15T21:55:56.474Z,2.60
2023-04-15T21:58:23.931Z,2.63
2023-04-15T22:00:57.201Z,2.60
2023-04-15T22:03:24.433Z,2.60
2023-04-15T22:05:51.652Z,2.70
2023-04-15T22:08:18.776Z,2.77
2023-04-15T22:10:46.425Z,2.60
2023-04-15T22:13:14.167Z,2.60
2023-04-15T22:15:42.657Z,2.57
2023-04-15T22:18:11.946Z,2.60
2023-04-15T22:20:39.688Z,2.60
2023-04-15T22:23:09.869Z,2.60
2023-04-15T22:25:37.638Z,2.60
2023-04-15T22:28:07.772Z,2.60
2023-04-15T22:30:42.248Z,2.60
2023-04-15T22:33:10.518Z,2.60
2023-04-15T22:35:38.051Z,2.60
2023-04-15T22:38:05.504Z,2.60
2023-04-15T22:40:33.124Z,2.60
2023-04-15T22:43:00.831Z,2.57
2023-04-15T22:45:27.897Z,2.57
2023-04-15T22:47:55.532Z,2.60
2023-04-15T22:50:22.674Z,2.60
2023-04-15T22:52:50.091Z,2.60
2023-04-15T22:55:17.561Z,2.60
2023-04-15T22:57:44.599Z,2.60
2023-04-15T23:00:12.441Z,2.60
2023-04-15T23:02:39.538Z,2.60
2023-04-15T23:05:12.376Z,2.60
2023-04-15T23:07:40.999Z,2.60
2023-04-15T23:10:08.930Z,2.60
2023-04-15T23:12:36.210Z,2.60
2023-04-15T23:15:04.377Z,2.60
2023-04-15T23:17:31.998Z,2.60
2023-04-15T23:19:59.139Z,2.70
2023-04-15T23:22:26.336Z,2.60
2023-04-15T23:24:53.409Z,2.60
2023-04-15T23:27:20.898Z,2.60
2023-04-15T23:29:48.499Z,2.60
2023-04-15T23:32:15.720Z,2.70
2023-04-15T23:34:42.763Z,2.67
2023-04-15T23:37:10.459Z,2.60
2023-04-15T23:39:37.953Z,2.60
2023-04-15T23:42:05.573Z,2.60
2023-04-15T23:44:33.027Z,2.57
2023-04-15T23:47:00.926Z,2.60
2023-04-15T23:49:29.042Z,2.60
2023-04-15T23:51:57.422Z,2.60
2023-04-15T23:54:26.747Z,2.60
2023-04-15T23:56:53.785Z,2.60
2023-04-15T23:59:20.739Z,2.63
